Time;durP1;ratioP1;P1;durP2;ratioP2;P2;SDS_P1;SDS_P2;PMS_P1;PMS_P2;Temp;Humidity;BMP_temperature;BMP_pressure;BME280_temperature;BME280_humidity;BME280_pressure;Samples;Min_cycle;Max_cycle;Signal;HPM_P1;HPM_P2
2023/09/20 00:02:13;;;;;;;0.10;0.10;;;;;;;17.35;60.13;99832.22;5327213;26;20052;-94
2023/09/20 00:04:39;;;;;;;0.20;0.20;;;;;;;17.36;60.13;99830.44;5327219;26;20067;-95
2023/09/20 00:07:07;;;;;;;0.00;0.00;;;;;;;17.29;60.12;99827.31;5346274;26;20440;-95
2023/09/20 00:09:33;;;;;;;0.00;0.00;;;;;;;17.15;60.12;99825.47;5327997;26;20109;-94
2023/09/20 00:11:58;;;;;;;0.25;0.25;;;;;;;17.17;60.12;99828.88;5346603;26;20340;-96
2023/09/20 00:14:24;;;;;;;0.37;0.37;;;;;;;17.25;60.12;99831.03;5290995;26;20101;-95
2023/09/20 00:16:52;;;;;;;0.08;0.08;;;;;;;17.26;60.12;99837.16;5328208;26;20102;-95
2023/09/20 00:19:21;;;;;;;0.08;0.08;;;;;;;17.18;60.11;99841.09;5333736;26;20021;-96
2023/09/20 00:21:49;;;;;;;0.00;0.00;;;;;;;17.19;60.12;99847.19;5359260;26;20024;-96
2023/09/20 00:24:19;;;;;;;1.35;0.28;;;;;;;17.09;60.12;99849.53;5336759;26;20639;-96
2023/09/20 00:26:45;;;;;;;0.00;0.00;;;;;;;17.13;60.11;99844.91;5355636;26;20068;-95
2023/09/20 00:29:13;;;;;;;0.10;0.10;;;;;;;17.32;60.13;99847.34;5354505;26;20059;-95
2023/09/20 00:31:39;;;;;;;0.10;0.10;;;;;;;17.19;60.12;99845.41;5355514;26;20061;-95
2023/09/20 00:34:05;;;;;;;0.00;0.00;;;;;;;17.12;60.11;99845.84;5335195;26;20064;-95
2023/09/20 00:36:31;;;;;;;0.25;0.25;;;;;;;17.11;60.11;99844.16;5335136;26;20087;-96
2023/09/20 00:38:57;;;;;;;0.00;0.00;;;;;;;16.94;60.11;99842.50;5335348;26;20090;-95
2023/09/20 00:41:24;;;;;;;0.00;0.00;;;;;;;16.98;60.10;99843.16;5336094;26;20446;-96
2023/09/20 00:43:52;;;;;;;0.00;0.00;;;;;;;17.23;60.12;99842.59;5335253;26;20060;-95
2023/09/20 00:46:19;;;;;;;0.00;0.00;;;;;;;17.21;60.11;99847.09;5361162;26;20036;-95
2023/09/20 00:48:45;;;;;;;0.00;0.00;;;;;;;17.30;60.12;99849.22;5342085;26;20024;-95
2023/09/20 00:51:11;;;;;;;0.00;0.00;;;;;;;17.22;60.12;99854.06;5333245;26;20048;-95
2023/09/20 00:53:37;;;;;;;0.00;0.00;;;;;;;17.20;60.11;99848.87;5333965;26;20079;-96
2023/09/20 00:56:04;;;;;;;5.80;0.55;;;;;;;17.14;60.11;99852.72;5351337;26;20071;-95
2023/09/20 00:58:34;;;;;;;0.00;0.00;;;;;;;17.00;60.10;99843.91;5334188;26;20056;-96
2023/09/20 01:01:03;;;;;;;0.30;0.30;;;;;;;16.81;60.10;99844.97;5357260;26;20049;-96
2023/09/20 01:04:39;;;;;;;0.00;0.00;;;;;;;17.01;60.11;99846.44;5326613;26;20073;-92
2023/09/20 01:12:36;;;;;;;0.10;0.10;;;;;;;16.94;60.11;99842.50;5285248;26;20073;-94
2023/09/20 01:17:47;;;;;;;0.00;0.00;;;;;;;16.78;60.10;99829.34;5291755;27;20073;-96
2023/09/20 01:20:13;;;;;;;0.22;0.22;;;;;;;16.88;60.10;99830.53;5298976;27;20760;-96
2023/09/20 01:23:00;;;;;;;0.10;0.10;;;;;;;16.85;60.11;99830.72;5297773;27;20073;-96
2023/09/20 01:25:35;;;;;;;0.45;0.45;;;;;;;16.68;60.09;99832.59;5277343;27;20067;-96
2023/09/20 01:28:06;;;;;;;1.05;0.85;;;;;;;16.60;60.08;99833.00;5264625;27;20095;-95
2023/09/20 01:30:36;;;;;;;0.00;0.00;;;;;;;16.67;60.09;99834.37;5275998;27;20120;-95
2023/09/20 01:33:28;;;;;;;0.25;0.20;;;;;;;16.69;60.09;99826.41;5272899;27;20024;-96
2023/09/20 01:36:05;;;;;;;0.43;0.17;;;;;;;16.69;60.08;99834.28;5336119;27;20625;-95
2023/09/20 01:38:30;;;;;;;0.10;0.10;;;;;;;16.75;60.09;99834.78;5310593;27;20061;-93
2023/09/20 01:40:58;;;;;;;0.00;0.00;;;;;;;16.67;60.09;99831.75;5268356;27;20082;-94
2023/09/20 01:43:25;;;;;;;0.22;0.20;;;;;;;16.62;60.08;99835.53;5269876;27;20060;-93
2023/09/20 01:45:54;;;;;;;0.57;0.57;;;;;;;16.48;60.08;99831.03;5287032;27;20738;-92
2023/09/20 01:48:20;;;;;;;1.35;0.82;;;;;;;16.48;60.08;99833.66;5268689;27;20124;-94
2023/09/20 01:50:47;;;;;;;0.00;0.00;;;;;;;16.55;60.09;99846.34;5268588;27;20104;-93
2023/09/20 01:53:14;;;;;;;1.85;0.98;;;;;;;16.47;60.08;99845.94;5268767;27;20669;-94
2023/09/20 01:55:42;;;;;;;0.32;0.25;;;;;;;16.41;60.07;99848.91;5269229;27;20064;-94
2023/09/20 01:58:07;;;;;;;0.20;0.08;;;;;;;16.63;60.08;99839.84;5269575;27;20073;-93
2023/09/20 02:00:37;;;;;;;0.10;0.10;;;;;;;16.70;60.09;99839.44;5284545;27;20061;-94
2023/09/20 02:03:19;;;;;;;0.15;0.15;;;;;;;16.70;60.09;99838.59;5266865;27;20049;-94
2023/09/20 02:05:48;;;;;;;0.40;0.35;;;;;;;16.75;60.09;99836.56;5272280;27;20029;-94
2023/09/20 02:08:13;;;;;;;0.13;0.13;;;;;;;16.80;60.09;99831.91;5273425;27;20033;-94
2023/09/20 02:10:39;;;;;;;0.00;0.00;;;;;;;16.78;60.10;99829.34;5307381;27;20070;-94
2023/09/20 02:13:04;;;;;;;0.00;0.00;;;;;;;16.43;60.08;99833.06;5283329;27;20061;-94
2023/09/20 02:15:31;;;;;;;1.30;0.95;;;;;;;16.50;60.08;99837.03;5301425;27;20065;-95
2023/09/20 02:17:57;;;;;;;0.25;0.25;;;;;;;16.61;60.07;99832.06;5301527;26;20065;-93
2023/09/20 02:20:23;;;;;;;0.15;0.15;;;;;;;16.44;60.07;99826.88;5323213;27;20063;-93
2023/09/20 02:22:50;;;;;;;0.75;0.28;;;;;;;16.48;60.08;99833.66;5287129;27;20025;-95
2023/09/20 02:25:20;;;;;;;0.05;0.05;;;;;;;16.41;60.07;99841.03;5321227;27;20091;-94
2023/09/20 02:27:49;;;;;;;0.00;0.00;;;;;;;16.54;60.07;99839.41;5287459;27;20065;-94
2023/09/20 02:30:16;;;;;;;0.00;0.00;;;;;;;16.43;60.07;99836.53;5287549;27;20056;-94
2023/09/20 02:32:42;;;;;;;0.00;0.00;;;;;;;16.38;60.07;99840.34;5316329;27;20083;-94
2023/09/20 02:35:08;;;;;;;0.13;0.10;;;;;;;16.35;60.07;99837.91;5287774;27;20183;-95
2023/09/20 02:37:34;;;;;;;1.05;0.35;;;;;;;16.21;60.06;99830.75;5287371;27;20061;-95
2023/09/20 02:40:00;;;;;;;3.03;0.93;;;;;;;16.13;60.06;99836.44;5287118;27;20052;-94
2023/09/20 02:42:28;;;;;;;0.10;0.10;;;;;;;16.25;60.07;99840.16;5286967;27;20056;-95
2023/09/20 02:44:54;;;;;;;0.35;0.35;;;;;;;16.27;60.07;99836.50;5286565;27;20125;-93
2023/09/20 02:47:19;;;;;;;0.00;0.00;;;;;;;16.23;60.06;99834.13;5286900;27;20345;-93
2023/09/20 02:49:48;;;;;;;0.47;0.47;;;;;;;16.32;60.07;99841.50;5287784;27;20334;-95
2023/09/20 02:52:14;;;;;;;0.00;0.00;;;;;;;16.39;60.07;99839.41;5287784;27;20057;-95
2023/09/20 02:54:40;;;;;;;0.00;0.00;;;;;;;16.45;60.07;99841.72;5287932;27;20088;-94
2023/09/20 02:57:07;;;;;;;0.25;0.25;;;;;;;16.48;60.08;99845.00;5287508;27;20061;-95
2023/09/20 02:59:33;;;;;;;0.00;0.00;;;;;;;16.71;60.09;99841.16;5287432;27;20072;-95
2023/09/20 03:02:06;;;;;;;0.35;0.30;;;;;;;16.67;60.08;99844.88;5287443;27;20988;-94
2023/09/20 03:04:32;;;;;;;0.05;0.05;;;;;;;16.65;60.09;99841.47;5298317;27;20029;-95
2023/09/20 03:07:14;;;;;;;0.13;0.13;;;;;;;16.52;60.08;99845.69;5288177;27;20043;-94
2023/09/20 03:09:41;;;;;;;0.15;0.15;;;;;;;16.42;60.07;99839.25;5306225;27;20071;-94
2023/09/20 03:12:10;;;;;;;0.30;0.28;;;;;;;16.42;60.07;99845.34;5323970;27;20048;-94
2023/09/20 03:14:38;;;;;;;0.13;0.13;;;;;;;16.65;60.09;99851.97;5288057;27;20080;-93
2023/09/20 03:17:04;;;;;;;0.00;0.00;;;;;;;16.39;60.07;99850.78;5302487;26;20145;-93
2023/09/20 03:19:31;;;;;;;0.05;0.05;;;;;;;16.61;60.08;99850.47;5324279;27;20058;-93
2023/09/20 03:21:57;;;;;;;0.80;0.77;;;;;;;16.42;60.07;99850.59;5289099;27;20032;-94
2023/09/20 03:24:22;;;;;;;0.20;0.20;;;;;;;16.54;60.07;99851.69;5288121;27;20131;-93
2023/09/20 03:26:51;;;;;;;0.25;0.25;;;;;;;16.46;60.07;99846.03;5289663;27;20394;-93
2023/09/20 03:29:17;;;;;;;0.00;0.00;;;;;;;16.54;60.07;99846.44;5296543;27;20029;-94
2023/09/20 03:31:44;;;;;;;0.00;0.00;;;;;;;16.54;60.07;99854.34;5296151;27;20028;-94
2023/09/20 03:34:11;;;;;;;0.00;0.00;;;;;;;16.62;60.08;99851.31;5303030;26;20414;-94
2023/09/20 03:36:41;;;;;;;0.00;0.00;;;;;;;16.73;60.09;99844.53;5287591;27;20076;-93
2023/09/20 03:39:11;;;;;;;0.05;0.05;;;;;;;16.46;60.08;99844.25;5288015;27;20375;-94
2023/09/20 03:41:38;;;;;;;1.75;1.08;;;;;;;16.65;60.09;99849.34;5298462;26;20071;-95
2023/09/20 03:44:05;;;;;;;0.55;0.55;;;;;;;16.53;60.08;99837.72;5323996;27;20082;-96
2023/09/20 03:46:32;;;;;;;0.00;0.00;;;;;;;16.67;60.08;99844.88;5324000;27;20060;-94
2023/09/20 03:48:57;;;;;;;0.17;0.17;;;;;;;16.50;60.08;99839.66;5323702;27;20480;-95
2023/09/20 03:51:23;;;;;;;0.05;0.05;;;;;;;16.40;60.08;99835.88;5324576;27;20147;-96
2023/09/20 03:53:49;;;;;;;0.10;0.10;;;;;;;16.33;60.07;99834.50;5286942;27;20078;-94
2023/09/20 03:56:15;;;;;;;0.98;0.93;;;;;;;16.56;60.08;99834.06;5286507;27;20082;-94
2023/09/20 03:58:41;;;;;;;0.20;0.20;;;;;;;16.70;60.10;99844.72;5286453;27;20100;-93
2023/09/20 04:01:08;;;;;;;0.00;0.00;;;;;;;16.79;60.10;99832.81;5287302;27;20052;-96
2023/09/20 04:03:36;;;;;;;0.20;0.20;;;;;;;16.42;60.07;99834.84;5286700;27;20064;-96
2023/09/20 04:06:02;;;;;;;0.00;0.00;;;;;;;16.56;60.08;99842.84;5287995;27;20039;-96
2023/09/20 04:08:27;;;;;;;0.10;0.10;;;;;;;16.60;60.09;99842.66;5286875;27;20119;-95
2023/09/20 04:10:59;;;;;;;0.10;0.10;;;;;;;16.75;60.09;99837.41;5286943;27;20119;-94
2023/09/20 04:13:24;;;;;;;0.00;0.00;;;;;;;16.52;60.08;99840.44;5287160;27;20073;-95
2023/09/20 04:15:50;;;;;;;0.32;0.32;;;;;;;16.79;60.10;99833.66;5286704;27;20060;-92
2023/09/20 04:18:15;;;;;;;1.30;0.70;;;;;;;16.62;60.08;99838.16;5286706;27;20061;-92
2023/09/20 04:20:46;;;;;;;0.17;0.15;;;;;;;16.53;60.08;99837.72;5286417;27;20438;-94
2023/09/20 04:23:12;;;;;;;0.28;0.28;;;;;;;16.39;60.07;99839.41;5302790;26;20080;-95
2023/09/20 04:25:37;;;;;;;0.00;0.00;;;;;;;16.57;60.08;99846.31;5287253;27;20089;-93
2023/09/20 04:28:03;;;;;;;0.00;0.00;;;;;;;16.60;60.08;99846.13;5301104;27;20065;-96
2023/09/20 04:30:30;;;;;;;0.00;0.00;;;;;;;16.50;60.08;99844.94;5323607;27;20078;-93
2023/09/20 04:32:56;;;;;;;0.10;0.10;;;;;;;16.35;60.07;99838.75;5287773;27;20065;-94
2023/09/20 04:38:30;;;;;;;0.00;0.00;;;;;;;16.38;60.07;99849.09;5289154;27;20056;-94
2023/09/20 04:40:56;;;;;;;0.28;0.28;;;;;;;16.33;60.07;99848.50;5289214;27;20062;-95
2023/09/20 04:43:22;;;;;;;0.00;0.00;;;;;;;16.32;60.07;99862.53;5306719;26;20060;-95
2023/09/20 04:45:47;;;;;;;0.00;0.00;;;;;;;16.28;60.06;99864.47;5300575;27;20106;-94
2023/09/20 04:48:13;;;;;;;0.00;0.00;;;;;;;16.30;60.06;99866.16;5327526;27;20070;-94
2023/09/20 04:50:38;;;;;;;0.17;0.17;;;;;;;16.32;60.08;99864.31;5291900;27;20048;-95
2023/09/20 04:53:04;;;;;;;0.00;0.00;;;;;;;16.36;60.07;99865.88;5301434;27;20062;-95
2023/09/20 04:55:35;;;;;;;0.00;0.00;;;;;;;16.48;60.07;99865.19;5296703;27;20060;-95
2023/09/20 04:58:01;;;;;;;0.40;0.17;;;;;;;16.88;60.09;99869.13;5300396;27;20071;-95
2023/09/20 05:00:33;;;;;;;0.00;0.00;;;;;;;16.73;60.09;99872.59;5322861;27;20064;-95
2023/09/20 05:03:00;;;;;;;0.10;0.10;;;;;;;17.16;60.12;99871.91;5288912;27;20507;-95
2023/09/20 05:05:26;;;;;;;0.00;0.00;;;;;;;17.00;60.10;99884.22;5304013;27;20122;-94
2023/09/20 05:07:52;;;;;;;0.57;0.30;;;;;;;17.10;60.12;99882.78;5286210;27;20064;-95
2023/09/20 05:10:18;;;;;;;0.65;0.62;;;;;;;16.96;60.10;99873.94;5268168;27;20044;-94
2023/09/20 05:12:44;;;;;;;0.70;0.25;;;;;;;17.08;60.10;99881.16;5286596;27;20037;-96
2023/09/20 05:15:12;;;;;;;0.10;0.10;;;;;;;16.99;60.10;99879.87;5286349;27;20060;-96
2023/09/20 05:17:48;;;;;;;1.00;1.00;;;;;;;17.14;60.11;99880.81;5297328;26;20361;-95
2023/09/20 05:20:14;;;;;;;0.00;0.00;;;;;;;17.40;60.13;99882.78;5286844;27;20061;-95
2023/09/20 05:22:40;;;;;;;0.52;0.37;;;;;;;17.27;60.12;99879.19;5286218;27;20167;-93
2023/09/20 05:25:09;;;;;;;0.03;0.03;;;;;;;17.49;60.14;99878.75;5286304;27;20065;-95
2023/09/20 05:27:39;;;;;;;2.13;0.80;;;;;;;17.44;60.12;99881.66;5296907;26;20827;-94
2023/09/20 05:30:08;;;;;;;;;;;;;;;17.53;60.13;99876.81;5305213;26;20076;-95
2023/09/20 05:32:46;;;;;;;0.00;0.00;;;;;;;17.79;60.15;99881.44;5304385;27;19972;-95
2023/09/20 05:35:29;;;;;;;0.10;0.10;;;;;;;17.94;60.16;99874.38;5306381;26;20135;-95
2023/09/20 05:38:36;;;;;;;0.10;0.10;;;;;;;18.40;60.18;99877.69;5315069;27;20054;-95
2023/09/20 05:41:12;;;;;;;;;;;;;;;;;;;;;
2023/09/20 05:43:53;;;;;;;;;;;;;;;;;;;;;
2023/09/20 05:46:24;;;;;;;0.75;0.75;;;;;;;18.55;60.19;99887.28;5290107;27;35983;-95
2023/09/20 05:49:02;;;;;;;0.10;0.10;;;;;;;18.48;60.19;99895.69;5299996;26;20104;-95
2023/09/20 05:51:34;;;;;;;0.17;0.17;;;;;;;18.51;60.18;99904.25;5322872;27;20059;-95
2023/09/20 05:54:13;;;;;;;;;;;;;;;;;;;;;
2023/09/20 05:57:22;;;;;;;;;;;;;;;;;;;;;
2023/09/20 06:00:35;;;;;;;0.10;0.10;;;;;;;18.89;60.20;99899.19;5323510;27;35805;-94
2023/09/20 06:03:04;;;;;;;0.30;0.30;;;;;;;18.91;60.20;99899.94;5323853;26;20083;-95
2023/09/20 06:06:01;;;;;;;0.17;0.13;;;;;;;19.01;60.21;99894.94;5307459;27;20057;-95
2023/09/20 06:12:34;;;;;;;;;;;;;;;;;;;;;
2023/09/20 06:15:58;;;;;;;;;;;;;;;;;;;;;
2023/09/20 06:21:45;;;;;;;;;;;;;;;;;;;;;
2023/09/20 06:25:06;;;;;;;;;;;;;;;;;;;;;
2023/09/20 06:28:31;;;;;;;;;;;;;;;;;;;;;
2023/09/20 06:32:33;;;;;;;;;;;;;;;;;;;;;
2023/09/20 06:35:21;;;;;;;;;;;;;;;;;;;;;
2023/09/20 06:42:31;;;;;;;;;;;;;;;;;;;;;
2023/09/20 06:45:54;;;;;;;;;;;;;;;;;;;;;
2023/09/20 06:52:08;;;;;;;;;;;;;;;;;;;;;
2023/09/20 06:55:39;;;;;;;;;;;;;;;;;;;;;
2023/09/20 07:13:31;;;;;;;;;;;;;;;;;;;;;
2023/09/20 07:20:33;;;;;;;;;;;;;;;;;;;;;
2023/09/20 07:23:54;;;;;;;0.10;0.00;;;;;;;22.79;60.40;99914.41;5120841;27;35361;-94
2023/09/20 07:52:32;;;;;;;;;;;;;;;;;;;;;
2023/09/20 09:56:26;;;;;;;0.20;0.20;;;;;;;28.79;60.73;99828.09;5388904;26;20052;-95
2023/09/20 09:59:10;;;;;;;0.08;0.08;;;;;;;29.09;60.73;99829.34;5329303;26;20063;-95
2023/09/20 10:02:00;;;;;;;0.50;0.28;;;;;;;29.30;60.75;99829.69;5310018;26;20060;-95
2023/09/20 10:05:12;;;;;;;0.00;0.00;;;;;;;29.30;60.74;99823.50;5329671;26;20125;-94
2023/09/20 10:07:43;;;;;;;0.03;0.03;;;;;;;29.37;60.75;99821.00;5333229;26;20052;-95
2023/09/20 10:10:13;;;;;;;0.00;0.00;;;;;;;29.48;60.75;99818.84;5312940;26;20058;-95
2023/09/20 10:12:40;;;;;;;0.00;0.00;;;;;;;29.56;60.76;99810.78;5313621;26;20068;-95
2023/09/20 10:15:06;;;;;;;2.28;0.43;;;;;;;29.63;60.76;99813.62;5315820;26;20083;-95
2023/09/20 10:17:32;;;;;;;0.00;0.00;;;;;;;29.76;60.77;99805.88;5322052;26;20795;-94
2023/09/20 10:19:57;;;;;;;0.00;0.00;;;;;;;29.88;60.77;99815.25;5312174;26;20130;-94
2023/09/20 10:22:23;;;;;;;0.00;0.00;;;;;;;30.01;60.78;99811.19;5310426;26;20098;-93
2023/09/20 10:25:00;;;;;;;0.00;0.00;;;;;;;30.15;60.79;99797.94;5310236;26;20068;-94
2023/09/20 10:27:33;;;;;;;0.00;0.00;;;;;;;30.27;60.80;99802.91;5313584;26;20097;-93
2023/09/20 10:30:14;;;;;;;0.00;0.00;;;;;;;30.42;60.81;99803.84;5312051;26;20083;-92
2023/09/20 10:32:47;;;;;;;0.15;0.13;;;;;;;30.23;60.80;99808.63;5332764;26;20064;-93
2023/09/20 10:35:19;;;;;;;0.30;0.30;;;;;;;30.28;60.80;99804.56;5347810;26;20068;-91
2023/09/20 10:38:09;;;;;;;0.00;0.00;;;;;;;30.37;60.81;99803.53;5347833;26;20055;-92
2023/09/20 10:40:48;;;;;;;0.00;0.00;;;;;;;30.33;60.80;99799.53;5347538;26;20052;-91
2023/09/20 10:43:36;;;;;;;0.00;0.00;;;;;;;30.41;60.81;99791.44;5347789;26;20075;-91
2023/09/20 10:46:22;;;;;;;0.00;0.00;;;;;;;30.56;60.81;99795.06;5367864;26;20056;-92
2023/09/20 10:48:50;;;;;;;0.45;0.10;;;;;;;30.81;60.82;99799.28;5311610;26;20793;-92
2023/09/20 10:51:54;;;;;;;0.13;0.13;;;;;;;31.04;60.84;99790.41;5311393;26;20051;-91
2023/09/20 10:54:23;;;;;;;0.00;0.00;;;;;;;31.33;60.86;99781.63;5237006;27;20121;-91
2023/09/20 10:56:50;;;;;;;0.03;0.03;;;;;;;31.36;60.86;99776.69;5236784;27;20469;-90
2023/09/20 10:59:21;;;;;;;0.00;0.00;;;;;;;31.42;60.86;99767.91;5310667;26;20086;-90
2023/09/20 11:01:53;;;;;;;0.05;0.05;;;;;;;31.55;60.86;99766.44;5329831;26;20062;-90
2023/09/20 11:04:18;;;;;;;0.00;0.00;;;;;;;31.46;60.86;99762.97;5329173;26;20064;-90
2023/09/20 11:06:50;;;;;;;0.22;0.22;;;;;;;31.56;60.87;99765.41;5347509;26;20321;-89
2023/09/20 11:09:16;;;;;;;0.00;0.00;;;;;;;31.65;60.88;99765.13;5310791;26;20067;-89
2023/09/20 11:11:42;;;;;;;0.10;0.10;;;;;;;31.75;60.88;99770.31;5310631;26;20056;-89
2023/09/20 11:14:08;;;;;;;0.00;0.00;;;;;;;31.60;60.87;99758.66;5329420;26;20118;-89
2023/09/20 11:16:34;;;;;;;0.45;0.30;;;;;;;31.55;60.86;99756.50;5347754;26;20063;-89
2023/09/20 11:19:00;;;;;;;0.00;0.00;;;;;;;31.53;60.87;99749.66;5329540;26;20128;-90
2023/09/20 11:21:26;;;;;;;0.10;0.10;;;;;;;31.59;60.87;99747.03;5311198;26;20062;-88
2023/09/20 11:23:51;;;;;;;0.08;0.08;;;;;;;31.61;60.87;99749.56;5329231;26;20107;-88
2023/09/20 11:26:29;;;;;;;0.00;0.00;;;;;;;31.84;60.88;99749.50;5347907;26;20060;-88
2023/09/20 11:28:54;;;;;;;0.10;0.10;;;;;;;31.75;60.88;99748.78;5347948;26;20056;-87
2023/09/20 11:31:30;;;;;;;0.00;0.00;;;;;;;31.81;60.89;99753.41;5329683;26;20395;-88
2023/09/20 11:33:58;;;;;;;0.10;0.10;;;;;;;31.98;60.89;99751.34;5330645;26;20125;-88
2023/09/20 11:36:23;;;;;;;0.00;0.00;;;;;;;31.89;60.89;99747.06;5332575;26;20063;-88
2023/09/20 11:38:49;;;;;;;0.15;0.10;;;;;;;31.89;60.89;99752.47;5321405;26;31397;-87
2023/09/20 11:41:16;;;;;;;1.37;0.22;;;;;;;31.89;60.89;99752.47;5329283;26;20068;-88
2023/09/20 11:43:42;;;;;;;0.22;0.15;;;;;;;31.75;60.88;99748.78;5347582;26;20434;-88
2023/09/20 11:46:10;;;;;;;0.00;0.00;;;;;;;31.58;60.87;99740.00;5310348;26;20056;-87
2023/09/20 11:48:37;;;;;;;0.80;0.60;;;;;;;31.58;60.87;99744.53;5309720;26;24795;-88
2023/09/20 11:51:02;;;;;;;0.00;0.00;;;;;;;31.40;60.87;99736.81;5329030;26;20078;-88
2023/09/20 11:53:30;;;;;;;0.00;0.00;;;;;;;31.25;60.86;99733.28;5310288;26;20112;-88
2023/09/20 11:55:55;;;;;;;0.17;0.17;;;;;;;31.36;60.87;99732.81;5328682;26;20063;-88
2023/09/20 11:58:21;;;;;;;0.05;0.05;;;;;;;31.40;60.87;99726.06;5310348;26;20121;-88
2023/09/20 12:00:47;;;;;;;0.52;0.10;;;;;;;31.55;60.88;99726.91;5310764;26;20112;-89
2023/09/20 12:03:13;;;;;;;0.10;0.10;;;;;;;31.37;60.87;99721.88;5309936;26;20064;-88
2023/09/20 12:05:40;;;;;;;0.03;0.03;;;;;;;31.27;60.86;99721.31;5310784;26;20064;-88
2023/09/20 12:08:06;;;;;;;0.65;0.40;;;;;;;31.27;60.86;99725.88;5347319;26;20490;-88
2023/09/20 12:10:32;;;;;;;0.10;0.10;;;;;;;31.22;60.85;99712.94;5328826;26;20052;-88
2023/09/20 12:12:57;;;;;;;0.00;0.00;;;;;;;31.16;60.86;99708.28;5347333;26;20404;-89
2023/09/20 12:15:23;;;;;;;0.00;0.00;;;;;;;31.19;60.86;99713.31;5328922;26;20426;-88
2023/09/20 12:17:51;;;;;;;0.00;0.00;;;;;;;31.19;60.86;99712.47;5328713;26;20055;-89
2023/09/20 12:20:17;;;;;;;0.22;0.22;;;;;;;31.25;60.86;99707.22;5329391;26;20047;-89
2023/09/20 12:22:43;;;;;;;0.10;0.10;;;;;;;31.37;60.86;99704.91;5367588;26;20084;-88
2023/09/20 12:25:11;;;;;;;0.00;0.00;;;;;;;31.43;60.87;99702.31;5328790;26;20119;-88
2023/09/20 12:27:36;;;;;;;0.10;0.10;;;;;;;31.39;60.87;99698.31;5347914;26;20111;-90
2023/09/20 12:30:04;;;;;;;0.00;0.00;;;;;;;31.48;60.87;99699.09;5328902;26;20090;-88
2023/09/20 12:32:30;;;;;;;0.10;0.10;;;;;;;31.42;60.87;99697.13;5347726;26;20076;-89
2023/09/20 12:34:55;;;;;;;0.08;0.08;;;;;;;31.34;60.86;99686.44;5328916;26;20069;-89
2023/09/20 12:37:21;;;;;;;3.40;0.20;;;;;;;31.50;60.87;99685.44;5329006;26;20347;-89
2023/09/20 12:39:49;;;;;;;0.15;0.15;;;;;;;31.52;60.86;99691.47;5347514;26;20322;-89
2023/09/20 12:42:14;;;;;;;0.43;0.43;;;;;;;31.52;60.87;99681.56;5348100;26;20064;-89
2023/09/20 12:44:40;;;;;;;0.30;0.30;;;;;;;31.59;60.88;99681.63;5347540;26;20070;-88
2023/09/20 12:47:07;;;;;;;0.30;0.30;;;;;;;31.63;60.89;99674.84;5329256;26;20338;-89
2023/09/20 12:49:36;;;;;;;0.05;0.05;;;;;;;31.51;60.88;99679.88;5311040;26;20372;-90
2023/09/20 12:52:03;;;;;;;0.13;0.13;;;;;;;31.51;60.88;99670.97;5348412;26;20084;-90
2023/09/20 12:54:29;;;;;;;0.00;0.00;;;;;;;31.49;60.88;99667.63;5329526;26;20114;-89
2023/09/20 12:56:55;;;;;;;0.00;0.00;;;;;;;31.50;60.88;99662.06;5330776;26;20021;-90
2023/09/20 12:59:26;;;;;;;0.00;0.00;;;;;;;31.30;60.86;99663.63;5313835;26;20075;-90
2023/09/20 13:01:53;;;;;;;0.00;0.00;;;;;;;31.41;60.88;99655.09;5345514;26;20078;-90
2023/09/20 13:04:19;;;;;;;0.45;0.15;;;;;;;31.45;60.87;99653.69;5348398;26;20736;-90
2023/09/20 13:06:45;;;;;;;0.22;0.15;;;;;;;31.45;60.87;99648.31;5329225;26;20100;-90
2023/09/20 13:09:14;;;;;;;0.00;0.00;;;;;;;31.49;60.88;99638.88;5310078;26;20048;-90
2023/09/20 13:11:41;;;;;;;0.00;0.00;;;;;;;31.62;60.88;99638.19;5311719;26;20082;-90
2023/09/20 13:14:07;;;;;;;0.32;0.22;;;;;;;31.50;60.88;99639.72;5328819;26;20116;-90
2023/09/20 13:16:32;;;;;;;0.00;0.00;;;;;;;31.59;60.88;99638.59;5328882;26;20051;-90
2023/09/20 13:18:58;;;;;;;0.00;0.00;;;;;;;31.55;60.87;99631.91;5347049;26;20353;-90
2023/09/20 13:21:24;;;;;;;0.00;0.00;;;;;;;31.59;60.88;99627.81;5310416;26;20060;-91
2023/09/20 13:23:49;;;;;;;0.32;0.32;;;;;;;31.65;60.89;99627.06;5328956;26;20153;-90
2023/09/20 13:26:15;;;;;;;0.13;0.13;;;;;;;31.52;60.88;99621.53;5310001;26;20296;-89
2023/09/20 13:28:41;;;;;;;0.00;0.00;;;;;;;31.67;60.89;99615.09;5310979;26;20044;-89
2023/09/20 13:31:07;;;;;;;0.00;0.00;;;;;;;31.51;60.88;99617.16;5329546;26;20089;-90
2023/09/20 13:33:32;;;;;;;0.00;0.00;;;;;;;31.52;60.87;99614.28;5328785;26;20066;-90
2023/09/20 13:35:58;;;;;;;0.00;0.00;;;;;;;31.54;60.87;99617.63;5310206;26;20102;-90
2023/09/20 13:38:23;;;;;;;0.10;0.10;;;;;;;31.40;60.87;99611.22;5310139;26;20078;-90
2023/09/20 13:40:49;;;;;;;0.30;0.30;;;;;;;31.45;60.87;99607.97;5328530;26;20078;-90
2023/09/20 13:43:14;;;;;;;0.43;0.30;;;;;;;31.53;60.87;99613.28;5310600;26;20440;-89
2023/09/20 13:45:41;;;;;;;0.20;0.20;;;;;;;31.45;60.87;99608.81;5328704;26;20080;-90
2023/09/20 13:48:07;;;;;;;0.10;0.10;;;;;;;31.44;60.87;99604.44;5310585;26;20097;-90
2023/09/20 13:50:33;;;;;;;0.00;0.00;;;;;;;31.25;60.86;99607.72;5310118;26;20068;-90
2023/09/20 13:53:00;;;;;;;0.00;0.00;;;;;;;31.40;60.87;99605.00;5310236;26;20075;-91
2023/09/20 13:55:25;;;;;;;0.00;0.00;;;;;;;31.60;60.88;99603.41;5328968;26;20059;-90
2023/09/20 13:57:50;;;;;;;0.30;0.30;;;;;;;31.53;60.87;99602.50;5346816;26;20408;-90
2023/09/20 14:00:16;;;;;;;0.00;0.00;;;;;;;31.61;60.88;99594.31;5328285;26;20145;-91
2023/09/20 14:02:45;;;;;;;0.00;0.00;;;;;;;31.45;60.87;99598.03;5328903;26;20101;-90
2023/09/20 14:05:14;;;;;;;0.10;0.10;;;;;;;31.66;60.89;99596.44;5347977;26;20051;-90
2023/09/20 14:07:55;;;;;;;0.00;0.00;;;;;;;31.64;60.89;99595.78;5348582;26;20338;-90
2023/09/20 14:10:21;;;;;;;0.00;0.00;;;;;;;31.86;60.89;99585.94;5330612;26;20163;-90
2023/09/20 14:12:46;;;;;;;0.00;0.00;;;;;;;31.67;60.88;99581.97;5329848;26;20070;-90
2023/09/20 14:15:12;;;;;;;0.00;0.00;;;;;;;31.57;60.88;99581.44;5330201;26;20320;-91
2023/09/20 14:17:40;;;;;;;0.03;0.03;;;;;;;31.48;60.88;99587.97;5312414;26;20605;-90
2023/09/20 14:20:09;;;;;;;0.00;0.00;;;;;;;31.32;60.87;99584.44;5350582;26;20078;-90
2023/09/20 14:22:39;;;;;;;0.15;0.15;;;;;;;31.33;60.87;99586.09;5357258;26;20028;-91
2023/09/20 14:25:11;;;;;;;0.00;0.00;;;;;;;31.21;60.86;99581.37;5354727;26;20055;-90
2023/09/20 14:27:37;;;;;;;0.08;0.08;;;;;;;30.98;60.85;99578.72;5331488;26;20120;-90
2023/09/20 14:30:06;;;;;;;0.28;0.28;;;;;;;30.80;60.84;99585.31;5311894;26;20056;-91
2023/09/20 14:32:34;;;;;;;1.05;0.62;;;;;;;30.84;60.85;99578.56;5312093;26;20125;-91
2023/09/20 14:35:02;;;;;;;0.00;0.00;;;;;;;30.84;60.85;99575.03;5311770;26;20420;-91
2023/09/20 14:37:29;;;;;;;0.00;0.00;;;;;;;30.80;60.84;99574.56;5330671;26;20045;-92
2023/09/20 14:39:56;;;;;;;0.10;0.10;;;;;;;30.78;60.84;99576.59;5311853;26;20475;-91
2023/09/20 14:42:25;;;;;;;0.10;0.10;;;;;;;30.71;60.84;99578.34;5330310;26;20747;-91
2023/09/20 14:44:52;;;;;;;0.00;0.00;;;;;;;30.54;60.83;99574.94;5311657;26;20100;-91
2023/09/20 14:47:18;;;;;;;2.75;0.32;;;;;;;30.48;60.83;99572.13;5311638;26;20052;-92
2023/09/20 14:49:43;;;;;;;0.00;0.00;;;;;;;30.48;60.83;99574.81;5329712;26;20056;-92
2023/09/20 14:52:09;;;;;;;0.00;0.00;;;;;;;30.50;60.82;99572.78;5311336;26;20117;-91
2023/09/20 14:54:37;;;;;;;0.00;0.00;;;;;;;30.32;60.82;99570.44;5310328;26;22737;-92
2023/09/20 14:57:02;;;;;;;0.20;0.20;;;;;;;30.15;60.81;99571.56;5311504;26;20464;-92
2023/09/20 14:59:29;;;;;;;0.00;0.00;;;;;;;30.14;60.81;99561.84;5310760;26;20112;-91
2023/09/20 15:01:54;;;;;;;0.00;0.00;;;;;;;30.12;60.81;99571.94;5311222;26;20399;-91
2023/09/20 15:04:20;;;;;;;0.00;0.00;;;;;;;30.09;60.81;99569.63;5311294;26;20078;-91
2023/09/20 15:06:47;;;;;;;0.25;0.25;;;;;;;30.01;60.80;99573.13;5311020;26;20060;-92
2023/09/20 15:09:15;;;;;;;0.30;0.30;;;;;;;30.08;60.81;99568.78;5311789;26;20064;-92
2023/09/20 15:11:42;;;;;;;0.08;0.08;;;;;;;29.77;60.80;99562.56;5311913;26;20082;-92
2023/09/20 15:14:07;;;;;;;0.65;0.45;;;;;;;29.75;60.79;99564.59;5329562;26;20036;-92
2023/09/20 15:16:34;;;;;;;0.20;0.10;;;;;;;29.81;60.80;99561.19;5311273;26;20060;-92
2023/09/20 15:19:01;;;;;;;0.00;0.00;;;;;;;29.73;60.79;99562.06;5311427;26;20064;-93
2023/09/20 15:21:27;;;;;;;0.00;0.00;;;;;;;29.54;60.78;99554.47;5311928;26;20063;-92
2023/09/20 15:23:52;;;;;;;0.75;0.47;;;;;;;29.64;60.79;99558.63;5311113;26;20387;-92
2023/09/20 15:26:18;;;;;;;0.28;0.20;;;;;;;29.42;60.78;99562.06;5311715;26;20056;-92
2023/09/20 15:28:44;;;;;;;0.00;0.00;;;;;;;29.17;60.77;99561.31;5311299;26;20078;-94